Time;durP1;ratioP1;P1;durP2;ratioP2;P2;SDS_P1;SDS_P2;PMS_P1;PMS_P2;Temp;Humidity;BMP_temperature;BMP_pressure;BME280_temperature;BME280_humidity;BME280_pressure;Samples;Min_cycle;Max_cycle;Signal;HPM_P1;HPM_P2
2021/12/16 00:07:04;;;;;;;20.73;10.00;;;;;;;6.12;100.00;102278.19;6080964;29;20040;-94
2021/12/16 00:30:38;;;;;;;23.17;10.38;;;;;;;5.67;100.00;102278.72;6098253;29;20039;-91
2021/12/16 00:33:38;;;;;;;23.00;12.05;;;;;;;5.68;100.00;102277.81;6084233;29;20049;-91
2021/12/16 00:36:41;;;;;;;24.58;12.35;;;;;;;5.76;100.00;102284.41;6087468;29;20126;-91
2021/12/16 00:39:44;;;;;;;29.15;13.88;;;;;;;5.71;100.00;102282.84;6099513;29;20069;-91
2021/12/16 00:49:45;;;;;;;28.15;12.95;;;;;;;5.39;100.00;102276.91;6039500;29;20061;-92
2021/12/16 00:56:15;;;;;;;25.45;12.43;;;;;;;5.14;100.00;102274.22;6105275;29;20041;-91
2021/12/16 00:59:20;;;;;;;25.17;12.45;;;;;;;5.09;100.00;102273.50;6087429;29;20076;-92
2021/12/16 01:53:10;;;;;;;40.03;17.30;;;;;;;4.80;100.00;102284.59;6092843;29;20051;-92
2021/12/16 01:56:28;;;;;;;35.80;16.90;;;;;;;4.85;100.00;102285.31;6073354;29;20052;-91
2021/12/16 01:59:36;;;;;;;37.92;16.67;;;;;;;4.87;100.00;102292.06;6097895;29;20069;-91
2021/12/16 02:02:58;;;;;;;39.80;17.10;;;;;;;4.82;100.00;102285.34;6085518;29;20060;-92
2021/12/16 02:06:09;;;;;;;30.48;16.60;;;;;;;4.81;100.00;102292.22;6085019;29;20045;-91
2021/12/16 02:09:29;;;;;;;38.03;17.38;;;;;;;4.78;100.00;102279.47;6082291;29;20075;-91
2021/12/16 02:12:52;;;;;;;38.55;17.58;;;;;;;4.77;100.00;102282.06;6081468;29;20048;-91
2021/12/16 02:39:23;;;;;;;30.10;14.95;;;;;;;5.01;100.00;102290.84;6063194;29;20059;-91
2021/12/16 02:42:37;;;;;;;28.48;13.75;;;;;;;5.03;100.00;102283.94;6074354;29;20060;-91
2021/12/16 02:49:01;;;;;;;;;;;;;;;5.04;100.00;102293.31;6063516;29;20048;-91
2021/12/16 02:52:07;;;;;;;26.65;13.02;;;;;;;5.03;100.00;102301.91;6074908;29;19927;-91
2021/12/16 02:55:13;;;;;;;31.50;14.27;;;;;;;5.03;100.00;102301.91;6078246;29;20100;-91
2021/12/16 02:58:16;;;;;;;27.83;13.75;;;;;;;5.09;100.00;102312.00;6092031;29;20059;-91
2021/12/16 03:01:26;;;;;;;28.75;13.25;;;;;;;5.21;100.00;102316.81;6072362;29;20044;-91
2021/12/16 03:04:30;;;;;;;29.83;13.45;;;;;;;5.31;100.00;102307.97;6076625;29;20172;-91
2021/12/16 03:07:32;;;;;;;24.77;11.65;;;;;;;5.40;100.00;102305.13;6069086;29;20526;-91
2021/12/16 03:17:30;;;;;;;23.37;11.37;;;;;;;5.72;100.00;102299.97;6066646;29;20060;-91
2021/12/16 03:20:47;;;;;;;24.85;11.27;;;;;;;5.96;100.00;102298.38;6066420;29;20636;-91
2021/12/16 03:37:21;;;;;;;23.27;11.18;;;;;;;6.65;100.00;102302.13;6055497;29;20502;-90
2021/12/16 03:40:25;;;;;;;27.52;12.68;;;;;;;6.86;100.00;102299.72;6061857;29;20176;-91
2021/12/16 03:43:30;;;;;;;27.42;14.05;;;;;;;6.98;100.00;102306.16;6051438;29;20414;-91
2021/12/16 03:46:37;;;;;;;27.13;13.70;;;;;;;6.97;100.00;102307.06;6054296;29;20053;-91
2021/12/16 03:49:39;;;;;;;31.65;14.45;;;;;;;7.08;100.00;102310.09;6059847;29;20094;-91
2021/12/16 03:52:44;;;;;;;30.58;14.13;;;;;;;7.12;100.00;102311.66;6047998;29;20059;-91
2021/12/16 03:55:49;;;;;;;29.70;12.88;;;;;;;7.17;100.00;102307.19;6043168;29;20041;-91
2021/12/16 03:58:52;;;;;;;29.67;14.57;;;;;;;7.19;100.00;102304.56;6059911;29;20051;-91
2021/12/16 04:02:01;;;;;;;27.92;13.82;;;;;;;7.21;100.00;102306.19;6057954;29;20045;-91
2021/12/16 04:05:11;;;;;;;34.13;13.90;;;;;;;7.29;100.00;102306.75;6056008;29;20494;-91
2021/12/16 04:08:18;;;;;;;34.80;15.68;;;;;;;7.40;100.00;102310.66;6050759;29;20083;-91
2021/12/16 04:11:39;;;;;;;31.65;14.95;;;;;;;7.41;100.00;102299.47;6054484;29;20041;-91
2021/12/16 04:14:51;;;;;;;31.55;14.73;;;;;;;7.35;100.00;102297.94;6050552;29;20056;-91
2021/12/16 04:17:53;;;;;;;28.95;14.65;;;;;;;7.36;100.00;102302.22;6066748;29;20048;-91
2021/12/16 04:20:55;;;;;;;29.65;14.40;;;;;;;7.34;100.00;102314.31;6067929;29;20055;-91
2021/12/16 04:23:58;;;;;;;30.92;14.60;;;;;;;7.44;100.00;102315.66;6069451;29;20067;-91
2021/12/16 04:27:01;;;;;;;35.45;15.60;;;;;;;7.49;100.00;102313.75;6070358;29;20064;-91
2021/12/16 04:30:14;;;;;;;31.30;15.90;;;;;;;7.50;100.00;102315.44;6056009;29;20068;-91
2021/12/16 04:33:18;;;;;;;33.45;15.50;;;;;;;7.53;100.00;102327.38;6073250;29;20092;-91
2021/12/16 04:36:20;;;;;;;34.10;15.80;;;;;;;7.49;100.00;102334.34;6076638;29;20056;-91
2021/12/16 04:39:26;;;;;;;34.15;16.73;;;;;;;7.55;100.00;102336.72;6093393;29;20104;-91
2021/12/16 04:42:28;;;;;;;31.88;16.30;;;;;;;7.59;100.00;102350.31;6073663;29;20041;-92
2021/12/16 04:45:33;;;;;;;38.83;17.73;;;;;;;7.61;100.00;102358.00;6081384;29;20190;-91
2021/12/16 04:48:39;;;;;;;39.05;16.77;;;;;;;7.75;100.00;102348.00;6083814;29;20044;-91
2021/12/16 04:51:54;;;;;;;38.05;17.42;;;;;;;7.73;100.00;102367.88;6070167;29;20072;-91
2021/12/16 04:54:57;;;;;;;39.20;18.38;;;;;;;7.79;100.00;102359.06;6101514;29;20100;-91
2021/12/16 04:58:00;;;;;;;45.08;18.05;;;;;;;7.72;100.00;102369.56;6075014;29;20048;-91
2021/12/16 05:01:04;;;;;;;40.55;19.10;;;;;;;7.70;100.00;102373.09;6075124;29;20143;-91
2021/12/16 05:04:14;;;;;;;39.97;18.10;;;;;;;7.58;100.00;102368.41;6069480;29;20417;-91
2021/12/16 05:07:17;;;;;;;39.85;18.92;;;;;;;7.44;100.00;102366.34;6086811;29;20115;-91
2021/12/16 05:10:39;;;;;;;43.20;19.25;;;;;;;7.41;100.00;102374.19;6087456;29;20060;-91
2021/12/16 05:13:49;;;;;;;40.33;19.60;;;;;;;7.45;100.00;102374.03;6049092;29;20136;-91
2021/12/16 05:16:55;;;;;;;44.55;20.42;;;;;;;7.38;100.00;102367.41;6055111;29;20482;-90
2021/12/16 05:20:05;;;;;;;56.40;19.83;;;;;;;7.41;100.00;102377.59;6068571;29;20083;-90
2021/12/16 05:26:29;;;;;;;45.25;20.88;;;;;;;7.45;100.00;102378.31;6080143;29;20359;-90
2021/12/16 05:29:43;;;;;;;47.42;20.92;;;;;;;7.39;100.00;102365.69;6061016;29;20569;-91
2021/12/16 05:32:47;;;;;;;48.58;20.27;;;;;;;7.43;100.00;102364.66;6045538;29;20060;-90
2021/12/16 05:35:50;;;;;;;49.63;20.13;;;;;;;7.40;100.00;102370.75;6052419;29;20531;-91
2021/12/16 05:38:53;;;;;;;43.60;20.33;;;;;;;7.41;100.00;102379.34;6064204;29;20421;-91
2021/12/16 05:41:58;;;;;;;48.20;20.08;;;;;;;7.38;100.00;102385.44;6049392;29;20864;-90
2021/12/16 05:45:01;;;;;;;41.83;19.08;;;;;;;7.39;100.00;102386.28;6063888;29;20063;-91
2021/12/16 05:48:05;;;;;;;43.53;18.83;;;;;;;7.46;100.00;102401.47;6064097;29;20055;-91
2021/12/16 05:51:21;;;;;;;41.70;19.38;;;;;;;7.46;100.00;102406.63;6064279;29;20049;-91
2021/12/16 05:54:23;;;;;;;42.38;19.48;;;;;;;7.52;100.00;102406.38;6070978;29;20121;-91
2021/12/16 05:57:50;;;;;;;46.67;19.48;;;;;;;7.64;100.00;102412.00;6070874;29;20045;-91
2021/12/16 06:01:00;;;;;;;48.47;21.10;;;;;;;7.51;100.00;102419.34;6054836;29;20052;-91
2021/12/16 06:04:02;;;;;;;46.72;20.10;;;;;;;7.50;100.00;102418.50;6072229;29;20127;-91
2021/12/16 06:07:07;;;;;;;46.10;19.77;;;;;;;7.49;100.00;102426.28;6088791;29;20045;-91
2021/12/16 06:10:26;;;;;;;47.50;20.70;;;;;;;7.57;100.00;102428.59;6057806;29;20059;-91
2021/12/16 06:13:33;;;;;;;49.50;21.15;;;;;;;7.50;100.00;102436.56;6072445;29;20060;-91
2021/12/16 06:27:08;;;;;;;56.10;23.50;;;;;;;7.62;100.00;102457.59;6085799;29;20115;-91
2021/12/16 06:30:13;;;;;;;52.20;21.42;;;;;;;7.69;100.00;102459.06;6086453;29;20048;-91
2021/12/16 06:33:23;;;;;;;49.30;22.67;;;;;;;7.70;100.00;102465.91;6068743;29;20106;-91
2021/12/16 06:36:25;;;;;;;57.90;23.65;;;;;;;7.63;100.00;102459.31;6083315;29;20037;-92
2021/12/16 06:39:27;;;;;;;54.28;25.15;;;;;;;7.60;100.00;102467.13;6054579;29;20075;-91
2021/12/16 06:42:57;;;;;;;61.20;23.50;;;;;;;7.54;100.00;102466.44;6067315;29;20049;-91
2021/12/16 06:46:07;;;;;;;63.90;24.90;;;;;;;7.55;100.00;102467.28;6064003;29;20067;-91
2021/12/16 06:49:13;;;;;;;60.83;24.77;;;;;;;7.67;100.00;102476.31;6084175;29;20041;-91
2021/12/16 06:52:29;;;;;;;59.15;25.27;;;;;;;7.51;100.00;102471.72;6082873;29;20049;-91
2021/12/16 06:55:47;;;;;;;64.30;26.20;;;;;;;7.60;100.00;102470.53;6065413;29;20063;-91
2021/12/16 06:59:07;;;;;;;60.25;24.95;;;;;;;7.60;100.00;102480.00;6057064;29;20514;-91
2021/12/16 07:02:18;;;;;;;58.10;24.97;;;;;;;7.57;100.00;102478.38;6062597;29;20053;-91
2021/12/16 07:05:23;;;;;;;57.75;24.00;;;;;;;7.51;100.00;102481.19;6049176;29;20135;-91
2021/12/16 07:08:25;;;;;;;59.65;24.52;;;;;;;7.59;100.00;102489.50;6064759;29;20061;-91
2021/12/16 07:11:28;;;;;;;60.65;25.27;;;;;;;7.55;100.00;102481.03;6065860;29;20052;-91
2021/12/16 07:14:39;;;;;;;60.90;24.42;;;;;;;7.59;100.00;102481.75;6060413;29;20587;-91
2021/12/16 07:17:42;;;;;;;57.15;24.70;;;;;;;7.59;100.00;102481.75;6077750;29;20604;-91
2021/12/16 07:20:44;;;;;;;58.80;23.48;;;;;;;7.52;100.00;102478.53;6080128;29;20329;-91
2021/12/16 07:23:49;;;;;;;58.53;25.15;;;;;;;7.50;100.00;102479.50;6081807;29;20201;-91
2021/12/16 07:26:51;;;;;;;61.53;23.50;;;;;;;7.55;100.00;102483.63;6064911;29;20104;-91
2021/12/16 07:29:53;;;;;;;64.57;25.00;;;;;;;7.55;100.00;102488.75;6083808;29;20048;-91
2021/12/16 07:32:55;;;;;;;55.65;23.25;;;;;;;7.55;100.00;102495.63;6061496;29;20059;-91
2021/12/16 07:36:00;;;;;;;57.35;24.92;;;;;;;7.49;100.00;102504.41;6064352;29;20045;-91
2021/12/16 07:39:07;;;;;;;55.42;25.25;;;;;;;7.56;100.00;102499.91;6064403;29;20552;-91
2021/12/16 07:42:13;;;;;;;59.40;24.77;;;;;;;7.65;100.00;102502.19;6083119;29;20076;-91
2021/12/16 07:45:17;;;;;;;59.78;24.17;;;;;;;7.64;100.00;102503.06;6066421;29;20063;-91
2021/12/16 07:48:20;;;;;;;56.70;24.85;;;;;;;7.63;100.00;102511.69;6077098;29;20081;-91
2021/12/16 07:51:23;;;;;;;59.60;24.75;;;;;;;7.65;100.00;102517.66;6057668;29;20044;-91
2021/12/16 07:54:26;;;;;;;60.92;25.42;;;;;;;7.65;100.00;102509.91;6074304;29;20526;-90
2021/12/16 07:57:28;;;;;;;64.60;25.10;;;;;;;7.67;100.00;102525.31;6075030;29;20525;-90
2021/12/16 08:00:33;;;;;;;52.13;24.45;;;;;;;7.69;100.00;102534.66;6073905;29;20218;-90
2021/12/16 08:03:36;;;;;;;57.78;23.17;;;;;;;7.68;100.00;102535.56;6074186;29;20051;-91
2021/12/16 08:06:38;;;;;;;60.75;24.65;;;;;;;7.75;100.00;102549.06;6071764;29;20127;-90
2021/12/16 08:09:42;;;;;;;55.55;23.55;;;;;;;7.84;100.00;102553.06;6057297;29;20052;-90
2021/12/16 08:12:45;;;;;;;54.97;24.67;;;;;;;7.72;100.00;102552.59;6074158;29;20044;-91
2021/12/16 08:15:47;;;;;;;56.67;23.95;;;;;;;7.78;100.00;102561.88;6074252;29;20049;-91
2021/12/16 08:18:50;;;;;;;58.67;25.40;;;;;;;7.86;100.00;102562.44;6056806;29;20048;-91
2021/12/16 08:21:53;;;;;;;59.40;25.58;;;;;;;7.88;100.00;102568.41;6061804;29;20222;-91
2021/12/16 08:24:55;;;;;;;58.80;24.83;;;;;;;7.81;100.00;102561.75;6056611;29;20138;-90
2021/12/16 08:27:58;;;;;;;57.22;24.17;;;;;;;7.84;100.00;102565.97;6057652;29;20056;-91
2021/12/16 08:31:00;;;;;;;58.47;25.80;;;;;;;7.93;100.00;102565.66;6057222;29;20057;-91
2021/12/16 08:34:05;;;;;;;56.40;23.98;;;;;;;7.99;100.00;102575.75;6074209;29;20045;-90
2021/12/16 08:37:08;;;;;;;58.25;24.65;;;;;;;7.99;100.00;102579.16;6073950;29;20631;-90
2021/12/16 08:40:22;;;;;;;63.47;25.55;;;;;;;8.01;100.00;102575.69;6073740;29;20808;-91
2021/12/16 08:43:31;;;;;;;;;;;;;;;7.97;100.00;102573.25;6057106;29;20192;-90
2021/12/16 08:46:37;;;;;;;56.50;24.52;;;;;;;7.96;100.00;102579.28;6074171;29;20577;-91
2021/12/16 08:49:40;;;;;;;51.50;25.23;;;;;;;7.89;100.00;102572.66;6073609;29;20049;-91
2021/12/16 08:52:43;;;;;;;60.28;25.08;;;;;;;7.95;100.00;102584.50;6057245;29;20064;-91
2021/12/16 08:55:46;;;;;;;56.88;25.55;;;;;;;7.92;100.00;102592.31;6069223;29;20053;-91
2021/12/16 08:58:48;;;;;;;64.53;25.73;;;;;;;8.08;100.00;102598.66;6034057;29;20863;-91
2021/12/16 09:01:54;;;;;;;59.85;25.23;;;;;;;8.04;100.00;102597.06;6074406;29;20060;-91
2021/12/16 09:04:56;;;;;;;61.78;26.15;;;;;;;8.05;100.00;102608.22;6056616;29;20135;-90
2021/12/16 09:07:58;;;;;;;62.72;24.90;;;;;;;8.02;100.00;102605.75;6073589;29;20495;-91
2021/12/16 09:11:04;;;;;;;56.95;24.45;;;;;;;8.03;100.00;102607.44;6056746;29;20418;-91
2021/12/16 09:14:06;;;;;;;63.30;25.33;;;;;;;8.12;100.00;102607.09;6073651;29;20406;-91
2021/12/16 09:17:22;;;;;;;61.30;26.65;;;;;;;8.17;100.00;102607.78;6073699;29;20541;-91
2021/12/16 09:20:24;;;;;;;62.05;26.15;;;;;;;8.11;100.00;102602.84;6056654;29;20059;-90
2021/12/16 09:23:27;;;;;;;57.60;25.25;;;;;;;8.08;100.00;102614.13;6073024;29;20045;-91
2021/12/16 09:26:29;;;;;;;58.47;26.27;;;;;;;8.10;100.00;102617.50;6073133;29;20053;-91
2021/12/16 09:29:32;;;;;;;70.32;26.08;;;;;;;8.24;100.00;102617.00;6073728;29;20398;-91
2021/12/16 09:32:35;;;;;;;64.28;26.10;;;;;;;8.13;100.00;102629.44;6076246;29;20286;-91
2021/12/16 09:35:38;;;;;;;59.83;24.77;;;;;;;8.03;100.00;102630.66;6077829;29;20615;-91
2021/12/16 09:38:42;;;;;;;65.75;27.00;;;;;;;7.96;100.00;102627.44;6077594;29;20051;-91
2021/12/16 09:41:49;;;;;;;74.35;26.95;;;;;;;7.96;100.00;102638.59;6076881;29;20044;-91
2021/12/16 09:44:51;;;;;;;69.88;27.67;;;;;;;7.89;100.00;102644.84;6074738;29;20049;-90
2021/12/16 09:47:53;;;;;;;63.95;26.38;;;;;;;7.90;100.00;102646.53;6058741;29;20147;-90
2021/12/16 09:50:57;;;;;;;74.13;25.60;;;;;;;7.87;100.00;102641.47;6059905;29;20524;-90
2021/12/16 09:54:07;;;;;;;72.38;28.15;;;;;;;7.87;100.00;102645.78;6075331;29;20438;-90
2021/12/16 09:57:09;;;;;;;69.78;28.20;;;;;;;7.90;100.00;102650.84;6077154;29;20562;-90
2021/12/16 10:00:14;;;;;;;62.78;25.90;;;;;;;7.95;100.00;102649.81;6076783;29;20051;-90
2021/12/16 10:03:17;;;;;;;65.82;28.55;;;;;;;7.94;100.00;102649.84;6076480;29;20052;-90
2021/12/16 10:06:19;;;;;;;66.50;27.80;;;;;;;7.94;100.00;102650.69;6059410;29;20048;-90
2021/12/16 10:09:22;;;;;;;60.67;26.05;;;;;;;7.95;100.00;102651.56;6060246;29;20116;-90
2021/12/16 10:12:29;;;;;;;67.57;27.38;;;;;;;7.93;100.00;102674.81;6077239;29;20127;-91
2021/12/16 10:18:38;;;;;;;66.25;27.67;;;;;;;8.07;100.00;102683.81;6076925;29;20197;-90
2021/12/16 10:21:42;;;;;;;68.03;27.85;;;;;;;8.02;100.00;102680.53;6076877;29;20048;-91
2021/12/16 10:24:45;;;;;;;67.18;27.33;;;;;;;7.98;100.00;102685.81;6059785;29;20052;-90
2021/12/16 10:28:24;;;;;;;63.10;25.95;;;;;;;7.83;100.00;102688.88;6060175;29;20041;-91
2021/12/16 10:31:41;;;;;;;57.75;23.77;;;;;;;7.81;100.00;102682.94;6051356;29;20507;-91
2021/12/16 10:35:13;;;;;;;56.47;24.63;;;;;;;7.80;100.00;102675.25;6059408;29;20093;-90
2021/12/16 10:38:20;;;;;;;59.72;24.20;;;;;;;7.86;100.00;102672.47;6059259;29;20089;-91
2021/12/16 10:41:24;;;;;;;58.92;23.20;;;;;;;7.87;100.00;102676.72;6059710;29;20076;-91
2021/12/16 10:44:33;;;;;;;52.83;23.23;;;;;;;8.01;100.00;102665.97;6075303;29;20545;-91
2021/12/16 10:47:35;;;;;;;60.58;23.40;;;;;;;8.04;100.00;102665.84;6076115;29;20052;-90
2021/12/16 10:51:17;;;;;;;55.00;22.15;;;;;;;8.11;100.00;102664.75;6075929;29;20057;-91
2021/12/16 10:54:37;;;;;;;56.05;22.90;;;;;;;8.08;100.00;102667.44;6071972;29;20052;-90
2021/12/16 10:57:52;;;;;;;49.97;22.13;;;;;;;7.98;100.00;102662.59;6058998;29;20645;-90
2021/12/16 11:00:54;;;;;;;48.72;21.67;;;;;;;8.04;100.00;102676.19;6076073;29;20092;-91
2021/12/16 11:03:58;;;;;;;43.45;20.38;;;;;;;8.13;100.00;102668.13;6043852;29;20052;-91
2021/12/16 11:07:09;;;;;;;53.30;21.92;;;;;;;8.11;100.00;102665.59;6076247;29;20916;-91
2021/12/16 11:10:12;;;;;;;;;;;;;;;8.20;100.00;102669.63;6048507;29;20067;-91
2021/12/16 11:13:14;;;;;;;46.83;20.48;;;;;;;8.24;100.00;102662.59;6059323;29;19952;-91
2021/12/16 11:16:31;;;;;;;46.15;19.23;;;;;;;8.24;100.00;102660.84;6074920;29;20052;-91
2021/12/16 11:19:59;;;;;;;43.50;19.38;;;;;;;8.27;100.00;102660.72;6075416;29;20769;-91
2021/12/16 11:23:11;;;;;;;39.47;17.45;;;;;;;8.33;100.00;102667.44;6058303;29;20522;-90
2021/12/16 11:26:18;;;;;;;40.03;18.33;;;;;;;8.28;100.00;102662.44;6058761;29;20045;-91
2021/12/16 11:29:22;;;;;;;44.00;19.95;;;;;;;8.43;100.00;102668.84;6075886;29;20048;-91
2021/12/16 11:32:37;;;;;;;40.78;18.50;;;;;;;8.55;100.00;102683.06;6074850;29;20057;-91
2021/12/16 11:35:44;;;;;;;39.13;18.67;;;;;;;8.60;100.00;102681.16;6058856;29;20627;-91
2021/12/16 11:38:48;;;;;;;50.20;22.60;;;;;;;8.60;100.00;102694.06;6075347;29;20048;-91
2021/12/16 11:42:01;;;;;;;47.65;21.00;;;;;;;8.56;100.00;102689.88;6058942;29;20499;-91
2021/12/16 11:45:04;;;;;;;45.95;19.23;;;;;;;8.58;100.00;102696.69;6058720;29;20052;-90
2021/12/16 11:48:08;;;;;;;48.83;20.77;;;;;;;8.52;100.00;102690.88;6074479;29;20425;-91
2021/12/16 11:51:31;;;;;;;43.17;19.65;;;;;;;8.48;100.00;102697.91;6058895;29;20523;-90
2021/12/16 11:54:35;;;;;;;43.45;19.88;;;;;;;8.44;100.00;102700.63;6070776;29;20048;-90
2021/12/16 11:57:43;;;;;;;42.15;18.42;;;;;;;8.39;100.00;102705.94;6060347;29;20128;-90
2021/12/16 12:00:45;;;;;;;47.17;19.92;;;;;;;8.40;100.00;102700.75;6057839;29;20503;-91
2021/12/16 12:03:47;;;;;;;41.88;19.42;;;;;;;8.47;100.00;102703.09;6050326;29;20049;-91
2021/12/16 12:06:50;;;;;;;47.55;20.50;;;;;;;8.47;100.00;102709.13;6057320;29;20052;-90
2021/12/16 12:09:54;;;;;;;41.83;19.05;;;;;;;8.45;100.00;102710.91;6074300;29;20183;-91
2021/12/16 12:13:02;;;;;;;37.75;18.95;;;;;;;8.49;100.00;102703.91;6074561;29;20088;-91
2021/12/16 12:16:17;;;;;;;41.55;17.88;;;;;;;8.44;100.00;102705.81;6057973;29;20048;-91
2021/12/16 12:19:24;;;;;;;39.38;17.30;;;;;;;8.45;100.00;102702.31;6074061;29;20040;-91
2021/12/16 12:22:26;;;;;;;39.58;18.48;;;;;;;8.36;100.00;102696.56;6057916;29;20132;-91
2021/12/16 12:25:28;;;;;;;38.45;17.73;;;;;;;8.43;100.00;102694.63;6057338;29;20147;-91
2021/12/16 12:28:53;;;;;;;39.63;17.35;;;;;;;8.36;100.00;102701.72;6059393;29;20047;-91
2021/12/16 12:32:24;;;;;;;36.65;15.95;;;;;;;8.39;100.00;102713.66;6042593;29;20048;-91
2021/12/16 12:35:29;;;;;;;33.50;16.48;;;;;;;8.44;100.00;102713.53;6057153;29;20048;-91
2021/12/16 12:38:46;;;;;;;37.25;17.33;;;;;;;8.55;100.00;102708.88;6056880;29;20056;-91
2021/12/16 12:41:49;;;;;;;39.95;17.95;;;;;;;8.43;100.00;102701.53;6070067;29;20057;-91
2021/12/16 12:44:51;;;;;;;31.10;16.05;;;;;;;8.41;100.00;102707.59;6049580;29;20055;-91
2021/12/16 12:47:58;;;;;;;31.05;15.43;;;;;;;8.35;100.00;102696.63;6074314;29;20067;-91
2021/12/16 12:51:02;;;;;;;30.33;14.02;;;;;;;8.32;100.00;102702.72;6041777;29;20375;-92
2021/12/16 12:54:20;;;;;;;30.33;13.55;;;;;;;8.31;100.00;102701.03;6057383;29;20518;-91
2021/12/16 12:57:43;;;;;;;29.50;14.35;;;;;;;8.30;100.00;102703.69;6058037;29;20052;-91
2021/12/16 13:00:57;;;;;;;28.17;14.77;;;;;;;8.25;100.00;102706.41;6073935;29;20048;-91
2021/12/16 13:04:16;;;;;;;28.30;13.63;;;;;;;8.24;100.00;102709.03;6057459;29;20051;-91
2021/12/16 13:07:31;;;;;;;31.73;14.50;;;;;;;8.24;100.00;102712.44;6059154;29;20063;-91
2021/12/16 13:10:55;;;;;;;24.58;12.40;;;;;;;8.26;100.00;102700.34;6080383;29;20675;-91
2021/12/16 13:14:18;;;;;;;28.40;13.35;;;;;;;8.27;100.00;102701.19;6062172;29;20048;-91
2021/12/16 13:28:02;;;;;;;29.50;13.95;;;;;;;8.21;100.00;102704.81;6077654;29;20051;-91
2021/12/16 13:31:34;;;;;;;24.60;12.68;;;;;;;8.23;100.00;102708.19;6045244;29;20308;-91
2021/12/16 13:34:51;;;;;;;25.60;11.68;;;;;;;8.33;100.00;102717.31;6060849;29;20914;-91
2021/12/16 13:37:57;;;;;;;23.02;11.88;;;;;;;8.32;100.00;102710.47;6061286;29;20044;-91
2021/12/16 13:41:17;;;;;;;23.42;10.75;;;;;;;8.27;100.00;102709.75;6078676;29;20052;-91
2021/12/16 13:44:34;;;;;;;21.00;11.02;;;;;;;8.24;100.00;102709.03;6066145;29;20056;-91
2021/12/16 13:58:47;;;;;;;24.77;10.55;;;;;;;8.12;100.00;102721.47;6074900;29;20052;-91
2021/12/16 14:02:05;;;;;;;21.48;10.98;;;;;;;8.04;100.00;102707.97;6066961;29;20578;-91
2021/12/16 14:05:33;;;;;;;19.73;10.20;;;;;;;7.99;100.00;102708.09;6058964;29;20071;-91
2021/12/16 14:08:51;;;;;;;18.50;9.18;;;;;;;7.96;100.00;102717.69;6035038;29;20533;-91
2021/12/16 14:13:03;;;;;;;20.75;10.25;;;;;;;7.94;100.00;102730.63;6048438;29;20047;-91
2021/12/16 14:16:20;;;;;;;18.67;8.85;;;;;;;8.06;100.00;102728.56;6079373;29;20650;-91
2021/12/16 14:23:11;;;;;;;16.73;8.10;;;;;;;8.00;100.00;102732.19;6076741;29;20151;-91
2021/12/16 14:43:35;;;;;;;20.15;9.05;;;;;;;8.02;100.00;102750.16;5995778;29;20054;-91
2021/12/16 14:46:48;;;;;;;14.65;8.05;;;;;;;7.93;100.00;102744.44;6058570;29;20143;-91
2021/12/16 14:49:55;;;;;;;15.43;7.85;;;;;;;7.81;100.00;102736.25;6070642;29;20077;-91
2021/12/16 14:52:58;;;;;;;12.73;6.53;;;;;;;7.84;100.00;102747.28;6043566;29;20049;-91
2021/12/16 14:56:05;;;;;;;12.98;6.47;;;;;;;7.79;100.00;102751.75;6075792;29;20051;-91
2021/12/16 14:59:11;;;;;;;13.23;6.57;;;;;;;7.84;100.00;102770.50;6078889;29;20063;-91
2021/12/16 15:02:15;;;;;;;12.73;6.43;;;;;;;7.94;100.00;102763.31;6076361;29;20505;-91
2021/12/16 15:05:36;;;;;;;13.32;6.95;;;;;;;7.82;100.00;102781.75;6077301;29;20060;-91
2021/12/16 15:08:57;;;;;;;15.73;6.75;;;;;;;7.77;100.00;102771.56;6044863;29;20506;-91
2021/12/16 15:12:16;;;;;;;15.35;7.75;;;;;;;7.67;100.00;102759.88;6077203;29;20184;-92
2021/12/16 15:15:29;;;;;;;15.82;7.30;;;;;;;7.63;100.00;102759.13;6076240;29;20055;-91
2021/12/16 15:36:17;;;;;;;15.13;7.47;;;;;;;7.67;100.00;102776.16;6051355;29;19927;-91
2021/12/16 15:45:54;;;;;;;17.90;7.47;;;;;;;7.87;100.00;102780.69;6053610;29;20677;-91
2021/12/16 15:48:56;;;;;;;15.55;8.00;;;;;;;7.82;100.00;102794.63;6053477;29;20044;-91
2021/12/16 15:52:01;;;;;;;15.75;7.72;;;;;;;7.83;100.00;102796.34;6069592;29;20049;-91
2021/12/16 15:55:05;;;;;;;20.75;9.25;;;;;;;7.77;100.00;102798.19;6055518;29;20649;-91
2021/12/16 15:58:09;;;;;;;17.83;9.00;;;;;;;7.89;100.00;102802.13;6053502;29;20068;-91
2021/12/16 16:01:15;;;;;;;17.27;8.73;;;;;;;7.91;100.00;102810.69;6055958;29;20041;-91
2021/12/16 16:04:35;;;;;;;20.25;8.77;;;;;;;7.85;100.00;102810.88;6075571;29;20044;-91
2021/12/16 16:07:39;;;;;;;14.82;8.40;;;;;;;7.83;100.00;102804.91;6063765;29;20131;-91
2021/12/16 16:10:44;;;;;;;16.35;8.80;;;;;;;7.83;100.00;102807.50;6064795;29;20082;-91
2021/12/16 16:13:51;;;;;;;18.55;9.30;;;;;;;7.93;100.00;102813.22;6067082;29;20053;-91
2021/12/16 16:16:57;;;;;;;17.00;9.13;;;;;;;7.86;100.00;102830.59;6046419;29;20037;-91
2021/12/16 16:19:58;;;;;;;22.27;10.02;;;;;;;7.80;100.00;102833.38;6046775;29;20037;-91
2021/12/16 16:23:16;;;;;;;22.35;11.38;;;;;;;7.72;100.00;102828.44;6048764;29;20045;-91
2021/12/16 16:26:20;;;;;;;19.20;10.45;;;;;;;7.74;100.00;102841.28;6048323;29;20060;-91
2021/12/16 16:29:31;;;;;;;20.02;9.55;;;;;;;7.70;100.00;102848.28;6070224;29;20132;-91
2021/12/16 16:33:14;;;;;;;20.13;10.50;;;;;;;7.63;100.00;102851.09;6057089;29;20049;-91
2021/12/16 16:36:19;;;;;;;18.15;9.77;;;;;;;7.63;100.00;102851.09;6045930;29;20060;-91
2021/12/16 16:39:24;;;;;;;20.55;10.18;;;;;;;7.75;100.00;102851.56;6052552;29;20111;-91
2021/12/16 16:42:39;;;;;;;21.60;10.95;;;;;;;7.90;100.00;102862.28;6068694;29;20123;-92
2021/12/16 16:45:43;;;;;;;20.95;10.68;;;;;;;7.90;100.00;102868.31;6062962;29;20181;-91
2021/12/16 16:48:54;;;;;;;23.90;10.90;;;;;;;7.78;100.00;102866.09;6048079;29;20243;-91
2021/12/16 16:52:01;;;;;;;20.08;11.15;;;;;;;7.67;100.00;102861.22;6058407;29;20111;-91
2021/12/16 16:55:20;;;;;;;22.55;10.93;;;;;;;7.70;100.00;102868.03;6061555;29;20051;-91
2021/12/16 16:58:23;;;;;;;21.70;12.13;;;;;;;7.74;100.00;102878.22;6079483;29;20632;-92
2021/12/16 17:01:25;;;;;;;20.00;10.32;;;;;;;7.78;100.00;102871.25;6049161;29;20053;-91
2021/12/16 17:04:32;;;;;;;23.35;11.75;;;;;;;7.73;100.00;102862.81;6060878;29;20053;-91
2021/12/16 17:07:53;;;;;;;22.27;10.95;;;;;;;7.85;100.00;102862.44;6061563;29;20049;-91
2021/12/16 17:11:12;;;;;;;22.67;11.15;;;;;;;7.68;100.00;102851.78;6077761;29;20056;-91
2021/12/16 17:14:19;;;;;;;23.70;11.68;;;;;;;7.54;100.00;102853.00;6059957;29;20099;-91
2021/12/16 17:17:27;;;;;;;23.27;11.63;;;;;;;7.51;100.00;102855.69;6074924;29;20044;-91
2021/12/16 17:20:30;;;;;;;21.70;11.05;;;;;;;7.58;100.00;102848.63;6057192;29;20049;-91
2021/12/16 17:23:33;;;;;;;24.13;11.60;;;;;;;7.61;100.00;102853.69;6060117;29;20064;-91
2021/12/16 17:26:53;;;;;;;23.65;11.68;;;;;;;7.64;100.00;102863.06;6077303;29;20514;-91
2021/12/16 17:30:03;;;;;;;22.52;11.07;;;;;;;7.62;100.00;102870.00;6045708;29;20052;-91
2021/12/16 17:33:06;;;;;;;20.70;10.53;;;;;;;7.57;100.00;102870.13;6076931;29;20487;-91
2021/12/16 17:36:08;;;;;;;18.92;9.93;;;;;;;7.66;100.00;102880.19;6076976;29;20660;-91
2021/12/16 17:39:15;;;;;;;23.85;12.77;;;;;;;7.56;100.00;102878.75;6063339;29;20083;-91
2021/12/16 17:42:23;;;;;;;24.70;13.05;;;;;;;7.57;100.00;102880.44;6060819;29;20176;-91
2021/12/16 17:45:27;;;;;;;22.85;11.80;;;;;;;7.51;100.00;102878.03;6059825;29;20048;-91
2021/12/16 17:48:34;;;;;;;20.92;11.68;;;;;;;7.53;100.00;102881.44;6061851;29;20073;-91
2021/12/16 17:51:41;;;;;;;23.85;12.35;;;;;;;7.59;100.00;102883.81;6061904;29;20047;-91
2021/12/16 17:54:47;;;;;;;23.52;11.65;;;;;;;7.66;100.00;102889.66;6056573;29;20044;-91
2021/12/16 17:57:56;;;;;;;23.65;11.95;;;;;;;7.61;100.00;102891.50;6047281;29;20530;-91